sensor_id;sensor_type;location;lat;lon;timestamp;P1;durP1;ratioP1;P2;durP2;ratioP2
70049;SDS011;57391;51.306;22.680;2022-07-24T00:00:25;10.10;;;7.30;;
70049;SDS011;57391;51.306;22.680;2022-07-24T00:03:02;13.20;;;7.90;;
70049;SDS011;57391;51.306;22.680;2022-07-24T00:05:30;13.50;;;8.00;;
70049;SDS011;57391;51.306;22.680;2022-07-24T00:07:57;11.70;;;7.90;;
70049;SDS011;57391;51.306;22.680;2022-07-24T00:10:24;11.10;;;7.30;;
70049;SDS011;57391;51.306;22.680;2022-07-24T00:12:51;11.50;;;7.50;;
70049;SDS011;57391;51.306;22.680;2022-07-24T00:15:18;12.80;;;8.20;;
70049;SDS011;57391;51.306;22.680;2022-07-24T00:17:45;13.60;;;7.90;;
70049;SDS011;57391;51.306;22.680;2022-07-24T00:20:12;13.20;;;8.60;;
70049;SDS011;57391;51.306;22.680;2022-07-24T00:22:40;12.30;;;8.10;;
70049;SDS011;57391;51.306;22.680;2022-07-24T00:25:07;11.50;;;7.90;;
70049;SDS011;57391;51.306;22.680;2022-07-24T00:27:34;13.70;;;8.50;;
70049;SDS011;57391;51.306;22.680;2022-07-24T00:30:02;11.20;;;8.00;;
70049;SDS011;57391;51.306;22.680;2022-07-24T00:32:30;14.00;;;7.90;;
70049;SDS011;57391;51.306;22.680;2022-07-24T00:34:57;12.60;;;8.60;;
70049;SDS011;57391;51.306;22.680;2022-07-24T00:37:24;12.70;;;8.70;;
70049;SDS011;57391;51.306;22.680;2022-07-24T00:39:51;14.80;;;9.60;;
70049;SDS011;57391;51.306;22.680;2022-07-24T00:42:18;14.30;;;8.90;;
70049;SDS011;57391;51.306;22.680;2022-07-24T00:44:45;15.80;;;9.30;;
70049;SDS011;57391;51.306;22.680;2022-07-24T00:47:12;13.10;;;9.40;;
70049;SDS011;57391;51.306;22.680;2022-07-24T00:49:40;14.30;;;9.20;;
70049;SDS011;57391;51.306;22.680;2022-07-24T00:52:07;16.70;;;9.30;;
70049;SDS011;57391;51.306;22.680;2022-07-24T00:54:34;16.80;;;10.20;;
70049;SDS011;57391;51.306;22.680;2022-07-24T00:57:01;15.50;;;10.00;;
70049;SDS011;57391;51.306;22.680;2022-07-24T00:59:28;16.30;;;9.90;;
70049;SDS011;57391;51.306;22.680;2022-07-24T01:01:55;17.80;;;10.00;;
70049;SDS011;57391;51.306;22.680;2022-07-24T01:04:22;16.30;;;10.50;;
70049;SDS011;57391;51.306;22.680;2022-07-24T01:06:49;16.60;;;10.90;;
70049;SDS011;57391;51.306;22.680;2022-07-24T01:09:17;14.40;;;10.70;;
70049;SDS011;57391;51.306;22.680;2022-07-24T01:11:45;17.70;;;11.20;;
70049;SDS011;57391;51.306;22.680;2022-07-24T01:14:12;15.70;;;10.40;;
70049;SDS011;57391;51.306;22.680;2022-07-24T01:16:39;16.60;;;11.00;;
70049;SDS011;57391;51.306;22.680;2022-07-24T01:19:07;19.50;;;10.50;;
70049;SDS011;57391;51.306;22.680;2022-07-24T01:21:34;17.80;;;12.00;;
70049;SDS011;57391;51.306;22.680;2022-07-24T01:24:01;16.90;;;10.70;;
70049;SDS011;57391;51.306;22.680;2022-07-24T01:26:28;17.60;;;10.90;;
70049;SDS011;57391;51.306;22.680;2022-07-24T01:28:55;16.30;;;11.40;;
70049;SDS011;57391;51.306;22.680;2022-07-24T01:31:23;16.40;;;11.10;;
70049;SDS011;57391;51.306;22.680;2022-07-24T01:33:50;16.20;;;11.60;;
70049;SDS011;57391;51.306;22.680;2022-07-24T01:36:17;16.50;;;10.80;;
70049;SDS011;57391;51.306;22.680;2022-07-24T01:38:44;18.40;;;11.50;;
70049;SDS011;57391;51.306;22.680;2022-07-24T01:41:11;16.40;;;11.20;;
70049;SDS011;57391;51.306;22.680;2022-07-24T01:43:38;18.00;;;11.50;;
70049;SDS011;57391;51.306;22.680;2022-07-24T01:46:05;16.30;;;11.80;;
70049;SDS011;57391;51.306;22.680;2022-07-24T01:48:33;19.10;;;11.30;;
70049;SDS011;57391;51.306;22.680;2022-07-24T01:51:00;19.60;;;11.60;;
70049;SDS011;57391;51.306;22.680;2022-07-24T01:53:28;19.60;;;11.60;;
70049;SDS011;57391;51.306;22.680;2022-07-24T01:55:55;21.30;;;11.40;;
70049;SDS011;57391;51.306;22.680;2022-07-24T01:58:22;19.50;;;11.70;;
70049;SDS011;57391;51.306;22.680;2022-07-24T02:00:49;21.10;;;11.70;;
70049;SDS011;57391;51.306;22.680;2022-07-24T02:03:18;16.00;;;11.30;;
70049;SDS011;57391;51.306;22.680;2022-07-24T02:05:46;17.00;;;11.20;;
70049;SDS011;57391;51.306;22.680;2022-07-24T02:08:13;18.60;;;11.30;;
70049;SDS011;57391;51.306;22.680;2022-07-24T02:10:40;18.50;;;11.10;;
70049;SDS011;57391;51.306;22.680;2022-07-24T02:13:08;17.50;;;10.90;;
70049;SDS011;57391;51.306;22.680;2022-07-24T02:15:35;18.00;;;11.00;;
70049;SDS011;57391;51.306;22.680;2022-07-24T02:18:02;18.50;;;11.30;;
70049;SDS011;57391;51.306;22.680;2022-07-24T02:20:30;19.30;;;11.40;;
70049;SDS011;57391;51.306;22.680;2022-07-24T02:22:57;16.50;;;10.90;;
70049;SDS011;57391;51.306;22.680;2022-07-24T02:25:24;20.70;;;11.30;;
70049;SDS011;57391;51.306;22.680;2022-07-24T02:27:51;20.10;;;10.90;;
70049;SDS011;57391;51.306;22.680;2022-07-24T02:30:20;17.70;;;10.60;;
70049;SDS011;57391;51.306;22.680;2022-07-24T02:32:51;19.60;;;10.90;;
70049;SDS011;57391;51.306;22.680;2022-07-24T02:35:18;18.80;;;10.60;;
70049;SDS011;57391;51.306;22.680;2022-07-24T02:37:46;16.80;;;10.60;;
70049;SDS011;57391;51.306;22.680;2022-07-24T02:40:13;18.00;;;10.10;;
70049;SDS011;57391;51.306;22.680;2022-07-24T02:42:42;15.20;;;11.00;;
70049;SDS011;57391;51.306;22.680;2022-07-24T02:45:10;17.70;;;11.00;;
70049;SDS011;57391;51.306;22.680;2022-07-24T02:47:49;17.90;;;10.70;;
70049;SDS011;57391;51.306;22.680;2022-07-24T02:50:20;15.70;;;10.60;;
70049;SDS011;57391;51.306;22.680;2022-07-24T02:52:49;18.50;;;10.60;;
70049;SDS011;57391;51.306;22.680;2022-07-24T02:55:17;15.80;;;10.60;;
70049;SDS011;57391;51.306;22.680;2022-07-24T02:57:44;16.70;;;10.30;;
70049;SDS011;57391;51.306;22.680;2022-07-24T03:00:14;20.40;;;10.80;;
70049;SDS011;57391;51.306;22.680;2022-07-24T03:02:43;18.80;;;11.30;;
70049;SDS011;57391;51.306;22.680;2022-07-24T03:05:11;14.50;;;10.70;;
70049;SDS011;57391;51.306;22.680;2022-07-24T03:07:39;19.60;;;10.80;;
70049;SDS011;57391;51.306;22.680;2022-07-24T03:10:08;17.40;;;11.00;;
70049;SDS011;57391;51.306;22.680;2022-07-24T03:12:37;18.00;;;10.50;;
70049;SDS011;57391;51.306;22.680;2022-07-24T03:15:05;25.20;;;10.80;;
70049;SDS011;57391;51.306;22.680;2022-07-24T03:17:33;18.00;;;10.70;;
70049;SDS011;57391;51.306;22.680;2022-07-24T03:20:00;20.20;;;11.50;;
70049;SDS011;57391;51.306;22.680;2022-07-24T03:22:27;18.80;;;10.70;;
70049;SDS011;57391;51.306;22.680;2022-07-24T03:24:54;15.50;;;10.80;;
70049;SDS011;57391;51.306;22.680;2022-07-24T03:27:21;16.20;;;11.10;;
70049;SDS011;57391;51.306;22.680;2022-07-24T03:29:49;19.00;;;10.70;;
70049;SDS011;57391;51.306;22.680;2022-07-24T03:32:16;17.80;;;10.40;;
70049;SDS011;57391;51.306;22.680;2022-07-24T03:34:43;15.10;;;11.30;;
70049;SDS011;57391;51.306;22.680;2022-07-24T03:37:10;21.20;;;10.80;;
70049;SDS011;57391;51.306;22.680;2022-07-24T03:39:37;15.60;;;10.20;;
70049;SDS011;57391;51.306;22.680;2022-07-24T03:42:05;17.90;;;10.80;;
70049;SDS011;57391;51.306;22.680;2022-07-24T03:44:32;18.70;;;11.70;;
70049;SDS011;57391;51.306;22.680;2022-07-24T03:46:59;16.70;;;11.50;;
70049;SDS011;57391;51.306;22.680;2022-07-24T03:49:26;18.70;;;11.80;;
70049;SDS011;57391;51.306;22.680;2022-07-24T03:51:53;17.50;;;11.40;;
70049;SDS011;57391;51.306;22.680;2022-07-24T03:54:20;16.30;;;11.30;;
70049;SDS011;57391;51.306;22.680;2022-07-24T03:56:49;16.30;;;10.90;;
70049;SDS011;57391;51.306;22.680;2022-07-24T03:59:17;15.90;;;11.50;;
70049;SDS011;57391;51.306;22.680;2022-07-24T04:01:44;15.90;;;11.10;;
70049;SDS011;57391;51.306;22.680;2022-07-24T04:04:12;16.20;;;12.20;;
70049;SDS011;57391;51.306;22.680;2022-07-24T04:06:39;16.00;;;11.50;;
70049;SDS011;57391;51.306;22.680;2022-07-24T04:09:09;15.50;;;11.80;;
70049;SDS011;57391;51.306;22.680;2022-07-24T04:11:36;18.20;;;11.00;;
70049;SDS011;57391;51.306;22.680;2022-07-24T04:14:03;16.70;;;10.60;;
70049;SDS011;57391;51.306;22.680;2022-07-24T04:16:31;15.90;;;11.20;;
70049;SDS011;57391;51.306;22.680;2022-07-24T04:18:58;17.70;;;11.70;;
70049;SDS011;57391;51.306;22.680;2022-07-24T04:21:25;16.70;;;11.60;;
70049;SDS011;57391;51.306;22.680;2022-07-24T04:23:52;15.60;;;11.50;;
70049;SDS011;57391;51.306;22.680;2022-07-24T04:26:19;15.60;;;11.40;;
70049;SDS011;57391;51.306;22.680;2022-07-24T04:28:46;13.60;;;10.60;;
70049;SDS011;57391;51.306;22.680;2022-07-24T04:31:14;16.10;;;10.90;;
70049;SDS011;57391;51.306;22.680;2022-07-24T04:33:41;16.00;;;11.20;;
70049;SDS011;57391;51.306;22.680;2022-07-24T04:36:08;16.60;;;11.40;;
70049;SDS011;57391;51.306;22.680;2022-07-24T04:38:35;13.30;;;10.10;;
70049;SDS011;57391;51.306;22.680;2022-07-24T04:41:02;13.40;;;10.80;;
70049;SDS011;57391;51.306;22.680;2022-07-24T04:43:29;15.00;;;11.10;;
70049;SDS011;57391;51.306;22.680;2022-07-24T04:45:56;16.20;;;11.30;;
70049;SDS011;57391;51.306;22.680;2022-07-24T04:48:23;14.80;;;11.30;;
70049;SDS011;57391;51.306;22.680;2022-07-24T04:50:52;16.30;;;12.00;;
70049;SDS011;57391;51.306;22.680;2022-07-24T04:53:19;15.80;;;12.30;;
70049;SDS011;57391;51.306;22.680;2022-07-24T04:55:46;16.60;;;11.70;;
70049;SDS011;57391;51.306;22.680;2022-07-24T04:58:13;16.20;;;12.70;;
70049;SDS011;57391;51.306;22.680;2022-07-24T05:00:41;16.50;;;11.40;;
70049;SDS011;57391;51.306;22.680;2022-07-24T05:03:08;17.10;;;13.20;;
70049;SDS011;57391;51.306;22.680;2022-07-24T05:05:35;17.70;;;13.60;;
70049;SDS011;57391;51.306;22.680;2022-07-24T05:08:02;17.20;;;13.50;;
70049;SDS011;57391;51.306;22.680;2022-07-24T05:10:29;16.30;;;12.60;;
70049;SDS011;57391;51.306;22.680;2022-07-24T05:12:56;20.20;;;13.60;;
70049;SDS011;57391;51.306;22.680;2022-07-24T05:15:23;16.70;;;12.60;;
70049;SDS011;57391;51.306;22.680;2022-07-24T05:17:50;17.40;;;13.20;;
70049;SDS011;57391;51.306;22.680;2022-07-24T05:20:17;16.10;;;12.20;;
70049;SDS011;57391;51.306;22.680;2022-07-24T05:22:44;18.90;;;14.80;;
70049;SDS011;57391;51.306;22.680;2022-07-24T05:25:12;17.30;;;13.80;;
70049;SDS011;57391;51.306;22.680;2022-07-24T05:27:39;17.80;;;13.50;;
70049;SDS011;57391;51.306;22.680;2022-07-24T05:30:06;17.50;;;13.10;;
70049;SDS011;57391;51.306;22.680;2022-07-24T05:32:34;16.70;;;11.90;;
70049;SDS011;57391;51.306;22.680;2022-07-24T05:35:01;16.50;;;13.10;;
70049;SDS011;57391;51.306;22.680;2022-07-24T05:37:28;16.90;;;13.00;;
70049;SDS011;57391;51.306;22.680;2022-07-24T05:39:55;19.50;;;14.40;;
70049;SDS011;57391;51.306;22.680;2022-07-24T05:42:22;15.80;;;11.50;;
70049;SDS011;57391;51.306;22.680;2022-07-24T05:44:49;15.60;;;12.80;;
70049;SDS011;57391;51.306;22.680;2022-07-24T05:47:16;16.30;;;12.20;;
70049;SDS011;57391;51.306;22.680;2022-07-24T05:49:43;14.50;;;11.90;;
70049;SDS011;57391;51.306;22.680;2022-07-24T05:52:10;14.70;;;12.00;;
70049;SDS011;57391;51.306;22.680;2022-07-24T05:54:37;14.40;;;11.20;;
70049;SDS011;57391;51.306;22.680;2022-07-24T05:57:05;14.90;;;11.40;;
70049;SDS011;57391;51.306;22.680;2022-07-24T05:59:32;16.20;;;10.30;;
70049;SDS011;57391;51.306;22.680;2022-07-24T06:01:59;13.90;;;10.20;;
70049;SDS011;57391;51.306;22.680;2022-07-24T06:04:28;12.00;;;9.10;;
70049;SDS011;57391;51.306;22.680;2022-07-24T06:06:56;10.00;;;7.20;;
70049;SDS011;57391;51.306;22.680;2022-07-24T06:09:23;11.20;;;7.10;;
70049;SDS011;57391;51.306;22.680;2022-07-24T06:11:50;9.00;;;6.30;;
70049;SDS011;57391;51.306;22.680;2022-07-24T06:14:17;9.30;;;5.00;;
70049;SDS011;57391;51.306;22.680;2022-07-24T06:16:44;8.90;;;4.70;;
70049;SDS011;57391;51.306;22.680;2022-07-24T06:19:12;6.40;;;4.30;;
70049;SDS011;57391;51.306;22.680;2022-07-24T06:21:39;6.90;;;4.30;;
70049;SDS011;57391;51.306;22.680;2022-07-24T06:24:06;7.00;;;3.90;;
70049;SDS011;57391;51.306;22.680;2022-07-24T06:26:33;6.30;;;4.10;;
70049;SDS011;57391;51.306;22.680;2022-07-24T06:29:01;6.30;;;3.50;;
70049;SDS011;57391;51.306;22.680;2022-07-24T06:31:28;5.40;;;2.70;;
70049;SDS011;57391;51.306;22.680;2022-07-24T06:33:55;6.20;;;2.80;;
70049;SDS011;57391;51.306;22.680;2022-07-24T06:36:22;5.20;;;2.60;;
70049;SDS011;57391;51.306;22.680;2022-07-24T06:38:49;5.90;;;2.50;;
70049;SDS011;57391;51.306;22.680;2022-07-24T06:41:16;5.20;;;2.50;;
70049;SDS011;57391;51.306;22.680;2022-07-24T06:43:44;4.50;;;2.40;;
70049;SDS011;57391;51.306;22.680;2022-07-24T06:46:11;6.70;;;2.40;;
70049;SDS011;57391;51.306;22.680;2022-07-24T06:48:38;4.80;;;2.20;;
70049;SDS011;57391;51.306;22.680;2022-07-24T06:51:05;5.60;;;2.40;;
70049;SDS011;57391;51.306;22.680;2022-07-24T06:53:32;3.50;;;2.20;;
70049;SDS011;57391;51.306;22.680;2022-07-24T06:56:00;4.20;;;2.20;;
70049;SDS011;57391;51.306;22.680;2022-07-24T06:58:28;4.60;;;2.20;;
70049;SDS011;57391;51.306;22.680;2022-07-24T07:00:55;4.10;;;2.30;;
70049;SDS011;57391;51.306;22.680;2022-07-24T07:03:22;5.70;;;2.60;;
70049;SDS011;57391;51.306;22.680;2022-07-24T07:05:53;3.50;;;2.10;;
70049;SDS011;57391;51.306;22.680;2022-07-24T07:08:23;5.30;;;2.10;;
70049;SDS011;57391;51.306;22.680;2022-07-24T07:11:26;4.60;;;2.10;;
70049;SDS011;57391;51.306;22.680;2022-07-24T07:14:54;6.10;;;2.20;;
70049;SDS011;57391;51.306;22.680;2022-07-24T07:18:26;3.80;;;2.00;;
70049;SDS011;57391;51.306;22.680;2022-07-24T07:22:08;3.10;;;1.90;;
70049;SDS011;57391;51.306;22.680;2022-07-24T07:25:54;4.30;;;1.60;;
70049;SDS011;57391;51.306;22.680;2022-07-24T07:28:20;3.30;;;1.50;;
70049;SDS011;57391;51.306;22.680;2022-07-24T07:30:46;2.70;;;1.50;;
70049;SDS011;57391;51.306;22.680;2022-07-24T07:33:12;3.80;;;1.30;;
70049;SDS011;57391;51.306;22.680;2022-07-24T07:35:38;4.10;;;1.50;;
70049;SDS011;57391;51.306;22.680;2022-07-24T07:38:04;2.80;;;1.80;;
70049;SDS011;57391;51.306;22.680;2022-07-24T07:40:30;3.40;;;1.60;;
70049;SDS011;57391;51.306;22.680;2022-07-24T07:42:56;4.10;;;1.50;;
70049;SDS011;57391;51.306;22.680;2022-07-24T07:45:22;2.50;;;1.50;;
70049;SDS011;57391;51.306;22.680;2022-07-24T07:47:48;2.70;;;1.60;;
70049;SDS011;57391;51.306;22.680;2022-07-24T07:50:15;2.50;;;1.20;;
70049;SDS011;57391;51.306;22.680;2022-07-24T07:52:41;3.90;;;1.40;;
70049;SDS011;57391;51.306;22.680;2022-07-24T07:55:07;4.20;;;1.50;;
70049;SDS011;57391;51.306;22.680;2022-07-24T07:57:34;4.10;;;1.60;;
70049;SDS011;57391;51.306;22.680;2022-07-24T08:00:00;3.50;;;1.10;;
70049;SDS011;57391;51.306;22.680;2022-07-24T08:02:46;4.70;;;1.40;;
70049;SDS011;57391;51.306;22.680;2022-07-24T08:05:53;2.10;;;1.50;;
70049;SDS011;57391;51.306;22.680;2022-07-24T08:08:20;3.40;;;1.40;;
70049;SDS011;57391;51.306;22.680;2022-07-24T08:10:48;3.50;;;1.80;;
70049;SDS011;57391;51.306;22.680;2022-07-24T08:13:15;3.60;;;1.60;;
70049;SDS011;57391;51.306;22.680;2022-07-24T08:15:44;2.70;;;1.50;;
70049;SDS011;57391;51.306;22.680;2022-07-24T08:18:12;2.70;;;1.30;;
70049;SDS011;57391;51.306;22.680;2022-07-24T08:20:39;2.90;;;1.50;;
70049;SDS011;57391;51.306;22.680;2022-07-24T08:23:26;3.60;;;1.50;;
70049;SDS011;57391;51.306;22.680;2022-07-24T08:25:54;3.10;;;1.40;;
70049;SDS011;57391;51.306;22.680;2022-07-24T08:28:42;3.30;;;1.60;;
70049;SDS011;57391;51.306;22.680;2022-07-24T08:34:26;2.10;;;1.40;;
70049;SDS011;57391;51.306;22.680;2022-07-24T08:37:14;3.90;;;1.60;;
70049;SDS011;57391;51.306;22.680;2022-07-24T08:39:41;3.10;;;1.30;;
70049;SDS011;57391;51.306;22.680;2022-07-24T08:46:53;3.30;;;1.60;;
70049;SDS011;57391;51.306;22.680;2022-07-24T08:49:47;3.90;;;1.40;;
70049;SDS011;57391;51.306;22.680;2022-07-24T08:52:21;2.50;;;1.50;;
70049;SDS011;57391;51.306;22.680;2022-07-24T08:54:52;5.40;;;1.60;;
70049;SDS011;57391;51.306;22.680;2022-07-24T08:57:20;3.60;;;1.50;;
70049;SDS011;57391;51.306;22.680;2022-07-24T08:59:47;2.20;;;1.40;;
70049;SDS011;57391;51.306;22.680;2022-07-24T09:02:36;2.70;;;1.50;;
70049;SDS011;57391;51.306;22.680;2022-07-24T09:05:04;2.60;;;1.40;;
70049;SDS011;57391;51.306;22.680;2022-07-24T09:07:32;4.90;;;1.60;;
70049;SDS011;57391;51.306;22.680;2022-07-24T09:10:11;2.70;;;1.20;;
70049;SDS011;57391;51.306;22.680;2022-07-24T09:12:44;2.90;;;1.40;;
70049;SDS011;57391;51.306;22.680;2022-07-24T09:15:19;3.20;;;1.40;;
70049;SDS011;57391;51.306;22.680;2022-07-24T09:20:20;4.00;;;1.30;;
70049;SDS011;57391;51.306;22.680;2022-07-24T09:22:49;2.60;;;1.50;;
70049;SDS011;57391;51.306;22.680;2022-07-24T09:25:25;3.80;;;1.50;;
70049;SDS011;57391;51.306;22.680;2022-07-24T09:27:56;3.80;;;1.50;;
70049;SDS011;57391;51.306;22.680;2022-07-24T09:30:36;2.60;;;1.30;;
70049;SDS011;57391;51.306;22.680;2022-07-24T09:35:50;3.20;;;1.60;;
70049;SDS011;57391;51.306;22.680;2022-07-24T09:38:23;3.10;;;1.50;;
70049;SDS011;57391;51.306;22.680;2022-07-24T09:40:53;4.00;;;1.50;;
70049;SDS011;57391;51.306;22.680;2022-07-24T09:43:42;2.50;;;1.40;;
70049;SDS011;57391;51.306;22.680;2022-07-24T09:46:11;3.20;;;1.50;;
70049;SDS011;57391;51.306;22.680;2022-07-24T09:48:55;5.20;;;1.80;;
70049;SDS011;57391;51.306;22.680;2022-07-24T09:51:28;3.20;;;1.60;;
70049;SDS011;57391;51.306;22.680;2022-07-24T09:53:58;3.20;;;1.40;;
70049;SDS011;57391;51.306;22.680;2022-07-24T09:56:28;2.70;;;1.50;;
70049;SDS011;57391;51.306;22.680;2022-07-24T09:58:57;3.30;;;1.40;;
70049;SDS011;57391;51.306;22.680;2022-07-24T10:01:27;2.20;;;1.50;;
70049;SDS011;57391;51.306;22.680;2022-07-24T10:03:55;3.10;;;1.60;;
70049;SDS011;57391;51.306;22.680;2022-07-24T10:06:25;4.10;;;1.70;;
70049;SDS011;57391;51.306;22.680;2022-07-24T10:09:17;4.20;;;1.70;;
70049;SDS011;57391;51.306;22.680;2022-07-24T10:11:52;2.50;;;1.30;;
70049;SDS011;57391;51.306;22.680;2022-07-24T10:14:25;3.20;;;1.30;;
70049;SDS011;57391;51.306;22.680;2022-07-24T10:17:04;3.80;;;1.30;;
70049;SDS011;57391;51.306;22.680;2022-07-24T10:19:45;3.30;;;1.80;;
70049;SDS011;57391;51.306;22.680;2022-07-24T10:22:16;2.70;;;1.30;;
70049;SDS011;57391;51.306;22.680;2022-07-24T10:25:11;3.90;;;1.50;;
70049;SDS011;57391;51.306;22.680;2022-07-24T10:27:47;2.90;;;1.80;;
70049;SDS011;57391;51.306;22.680;2022-07-24T10:30:18;3.90;;;1.90;;
70049;SDS011;57391;51.306;22.680;2022-07-24T10:32:45;4.10;;;1.40;;
70049;SDS011;57391;51.306;22.680;2022-07-24T10:35:16;3.30;;;1.60;;
70049;SDS011;57391;51.306;22.680;2022-07-24T10:37:58;5.30;;;1.40;;
70049;SDS011;57391;51.306;22.680;2022-07-24T10:40:44;4.20;;;1.50;;
70049;SDS011;57391;51.306;22.680;2022-07-24T10:43:19;3.70;;;1.40;;
70049;SDS011;57391;51.306;22.680;2022-07-24T10:53:29;4.30;;;1.50;;
70049;SDS011;57391;51.306;22.680;2022-07-24T10:59:10;2.20;;;1.30;;
70049;SDS011;57391;51.306;22.680;2022-07-24T11:01:47;4.30;;;1.20;;
70049;SDS011;57391;51.306;22.680;2022-07-24T11:06:53;2.80;;;1.40;;
70049;SDS011;57391;51.306;22.680;2022-07-24T11:09:26;2.50;;;1.30;;
70049;SDS011;57391;51.306;22.680;2022-07-24T11:14:25;3.50;;;1.40;;
70049;SDS011;57391;51.306;22.680;2022-07-24T11:20:18;3.00;;;1.20;;
70049;SDS011;57391;51.306;22.680;2022-07-24T11:22:52;3.00;;;1.30;;
70049;SDS011;57391;51.306;22.680;2022-07-24T11:25:25;4.80;;;1.60;;
70049;SDS011;57391;51.306;22.680;2022-07-24T11:27:57;3.40;;;1.20;;
70049;SDS011;57391;51.306;22.680;2022-07-24T11:30:45;2.50;;;1.30;;
70049;SDS011;57391;51.306;22.680;2022-07-24T11:33:20;3.70;;;1.40;;
70049;SDS011;57391;51.306;22.680;2022-07-24T11:35:48;3.10;;;1.10;;
70049;SDS011;57391;51.306;22.680;2022-07-24T11:38:16;2.70;;;1.30;;
70049;SDS011;57391;51.306;22.680;2022-07-24T11:40:43;3.90;;;1.50;;
70049;SDS011;57391;51.306;22.680;2022-07-24T11:43:11;2.70;;;1.30;;
70049;SDS011;57391;51.306;22.680;2022-07-24T11:45:39;2.10;;;1.10;;
70049;SDS011;57391;51.306;22.680;2022-07-24T11:48:17;3.60;;;1.50;;
70049;SDS011;57391;51.306;22.680;2022-07-24T11:50:45;3.30;;;1.50;;
70049;SDS011;57391;51.306;22.680;2022-07-24T11:53:12;3.20;;;1.50;;
70049;SDS011;57391;51.306;22.680;2022-07-24T11:55:39;3.90;;;1.30;;
70049;SDS011;57391;51.306;22.680;2022-07-24T11:58:06;2.60;;;1.30;;
70049;SDS011;57391;51.306;22.680;2022-07-24T12:00:34;4.20;;;1.20;;
70049;SDS011;57391;51.306;22.680;2022-07-24T12:03:01;2.30;;;1.20;;
70049;SDS011;57391;51.306;22.680;2022-07-24T12:05:34;2.40;;;1.30;;
70049;SDS011;57391;51.306;22.680;2022-07-24T12:08:19;3.80;;;1.20;;
70049;SDS011;57391;51.306;22.680;2022-07-24T12:10:57;3.60;;;1.30;;
70049;SDS011;57391;51.306;22.680;2022-07-24T12:13:27;4.00;;;1.30;;
70049;SDS011;57391;51.306;22.680;2022-07-24T12:15:56;3.50;;;1.40;;
70049;SDS011;57391;51.306;22.680;2022-07-24T12:18:24;2.40;;;1.10;;
70049;SDS011;57391;51.306;22.680;2022-07-24T12:20:58;3.50;;;1.30;;
70049;SDS011;57391;51.306;22.680;2022-07-24T12:23:27;3.90;;;1.60;;
70049;SDS011;57391;51.306;22.680;2022-07-24T12:26:00;2.70;;;1.50;;
70049;SDS011;57391;51.306;22.680;2022-07-24T12:28:27;2.70;;;1.40;;
70049;SDS011;57391;51.306;22.680;2022-07-24T12:30:55;4.30;;;1.40;;
70049;SDS011;57391;51.306;22.680;2022-07-24T12:33:24;2.00;;;1.20;;
70049;SDS011;57391;51.306;22.680;2022-07-24T12:38:40;3.00;;;1.30;;
70049;SDS011;57391;51.306;22.680;2022-07-24T12:41:12;3.30;;;1.20;;
70049;SDS011;57391;51.306;22.680;2022-07-24T12:43:56;4.50;;;1.30;;
70049;SDS011;57391;51.306;22.680;2022-07-24T12:46:34;4.80;;;1.30;;
70049;SDS011;57391;51.306;22.680;2022-07-24T12:49:14;3.70;;;1.50;;
70049;SDS011;57391;51.306;22.680;2022-07-24T12:51:53;2.90;;;1.30;;
70049;SDS011;57391;51.306;22.680;2022-07-24T12:54:35;3.70;;;1.50;;
70049;SDS011;57391;51.306;22.680;2022-07-24T12:57:10;2.30;;;1.50;;
70049;SDS011;57391;51.306;22.680;2022-07-24T12:59:41;2.30;;;1.20;;
70049;SDS011;57391;51.306;22.680;2022-07-24T13:02:18;3.20;;;1.40;;
70049;SDS011;57391;51.306;22.680;2022-07-24T13:04:49;3.10;;;1.30;;
70049;SDS011;57391;51.306;22.680;2022-07-24T13:07:23;2.20;;;1.50;;
70049;SDS011;57391;51.306;22.680;2022-07-24T13:09:52;2.40;;;1.50;;
70049;SDS011;57391;51.306;22.680;2022-07-24T13:12:20;3.60;;;1.50;;
70049;SDS011;57391;51.306;22.680;2022-07-24T13:14:48;2.20;;;1.40;;
70049;SDS011;57391;51.306;22.680;2022-07-24T13:17:18;2.80;;;1.50;;
70049;SDS011;57391;51.306;22.680;2022-07-24T13:19:49;2.90;;;1.50;;
70049;SDS011;57391;51.306;22.680;2022-07-24T13:22:19;2.80;;;1.80;;
70049;SDS011;57391;51.306;22.680;2022-07-24T13:24:46;2.10;;;1.50;;
70049;SDS011;57391;51.306;22.680;2022-07-24T13:27:13;3.50;;;1.60;;
70049;SDS011;57391;51.306;22.680;2022-07-24T13:29:42;3.70;;;1.70;;
70049;SDS011;57391;51.306;22.680;2022-07-24T13:32:09;4.10;;;1.70;;
70049;SDS011;57391;51.306;22.680;2022-07-24T13:34:36;2.40;;;1.50;;
70049;SDS011;57391;51.306;22.680;2022-07-24T13:37:05;2.40;;;1.50;;
70049;SDS011;57391;51.306;22.680;2022-07-24T13:39:32;2.80;;;1.40;;
70049;SDS011;57391;51.306;22.680;2022-07-24T13:41:59;4.10;;;1.50;;
70049;SDS011;57391;51.306;22.680;2022-07-24T13:44:27;2.00;;;1.40;;
70049;SDS011;57391;51.306;22.680;2022-07-24T13:46:54;2.50;;;1.40;;
70049;SDS011;57391;51.306;22.680;2022-07-24T13:49:22;2.80;;;1.60;;
70049;SDS011;57391;51.306;22.680;2022-07-24T13:51:49;3.40;;;1.40;;
70049;SDS011;57391;51.306;22.680;2022-07-24T13:54:16;3.10;;;1.60;;
70049;SDS011;57391;51.306;22.680;2022-07-24T13:56:43;3.10;;;1.70;;
70049;SDS011;57391;51.306;22.680;2022-07-24T13:59:11;2.70;;;1.70;;
70049;SDS011;57391;51.306;22.680;2022-07-24T14:01:38;3.10;;;1.40;;
70049;SDS011;57391;51.306;22.680;2022-07-24T14:04:06;2.20;;;1.40;;
70049;SDS011;57391;51.306;22.680;2022-07-24T14:06:36;2.90;;;1.40;;
70049;SDS011;57391;51.306;22.680;2022-07-24T14:09:04;2.50;;;1.50;;
70049;SDS011;57391;51.306;22.680;2022-07-24T14:11:32;3.00;;;1.60;;
70049;SDS011;57391;51.306;22.680;2022-07-24T14:14:00;2.80;;;1.40;;
70049;SDS011;57391;51.306;22.680;2022-07-24T14:16:27;2.90;;;1.50;;
70049;SDS011;57391;51.306;22.680;2022-07-24T14:18:55;2.30;;;1.20;;
70049;SDS011;57391;51.306;22.680;2022-07-24T14:21:22;2.20;;;1.40;;
70049;SDS011;57391;51.306;22.680;2022-07-24T14:23:49;2.50;;;1.50;;
70049;SDS011;57391;51.306;22.680;2022-07-24T14:26:16;2.40;;;1.50;;
70049;SDS011;57391;51.306;22.680;2022-07-24T14:28:43;2.10;;;1.10;;
70049;SDS011;57391;51.306;22.680;2022-07-24T14:31:11;2.90;;;1.30;;
70049;SDS011;57391;51.306;22.680;2022-07-24T14:33:39;3.20;;;1.30;;
70049;SDS011;57391;51.306;22.680;2022-07-24T14:36:07;1.80;;;1.40;;
70049;SDS011;57391;51.306;22.680;2022-07-24T14:38:34;3.70;;;1.50;;
70049;SDS011;57391;51.306;22.680;2022-07-24T14:41:01;3.40;;;1.30;;
70049;SDS011;57391;51.306;22.680;2022-07-24T14:43:28;3.20;;;1.30;;
70049;SDS011;57391;51.306;22.680;2022-07-24T14:45:55;3.40;;;1.40;;
70049;SDS011;57391;51.306;22.680;2022-07-24T14:48:23;2.30;;;1.30;;
70049;SDS011;57391;51.306;22.680;2022-07-24T14:50:50;2.30;;;1.40;;
70049;SDS011;57391;51.306;22.680;2022-07-24T14:53:17;3.80;;;1.40;;
70049;SDS011;57391;51.306;22.680;2022-07-24T14:55:44;2.90;;;1.60;;
70049;SDS011;57391;51.306;22.680;2022-07-24T14:58:12;1.80;;;1.20;;
70049;SDS011;57391;51.306;22.680;2022-07-24T15:00:40;3.80;;;1.40;;
70049;SDS011;57391;51.306;22.680;2022-07-24T15:03:07;3.20;;;1.50;;
70049;SDS011;57391;51.306;22.680;2022-07-24T15:05:34;2.90;;;1.50;;
70049;SDS011;57391;51.306;22.680;2022-07-24T15:08:02;4.00;;;1.50;;
70049;SDS011;57391;51.306;22.680;2022-07-24T15:10:29;4.40;;;1.80;;
70049;SDS011;57391;51.306;22.680;2022-07-24T15:12:56;2.70;;;1.60;;
70049;SDS011;57391;51.306;22.680;2022-07-24T15:15:24;2.80;;;1.30;;